Kakushu Maru — JG5688 — position and weather

sailwx.info

Track history (hours):
 
Tides and Currents Weather Stations Pressure Air Temp Water Temp Dewpoint Dewpoint Depression Visibility Wind Speed Wind Dir Waves Ship Positions

Kakushu Maru

Last reported at 2014-Dec-04 05:33 UTC. Time now 2014-Dec-22 07:04 UTC.
Position N 35°16' E 139°46'.
Warning: this ship's position is 18 days out of date.

Length 105 m; draft 4.7 m.

Type: Tanker. MMSI: 431101016.

Date/timePositionNaut miles runAvg speedWind from/ knotsBaromVisibWave heightAir tempDewpointWater temp
2014-Dec-04 05:33N 35°16' E 139°46'1111.0
2014-Dec-04 04:33N 35°27' E 139°46'4 3.8
2014-Dec-04 03:33N 35°31' E 139°46'0 0.0
2014-Dec-04 02:33N 35°31' E 139°46'0 0.0
2014-Dec-04 01:33N 35°31' E 139°46'0 0.0
2014-Dec-04 00:33N 35°31' E 139°46'1 0.5
2014-Dec-03 22:33N 35°30' E 139°45'7 6.7
2014-Dec-03 21:33N 35°24' E 139°46'9 8.9
2014-Dec-03 20:33N 35°15' E 139°47'  
Track history (hours):
 
Tides and Currents Weather Stations Pressure Air Temp Water Temp Dewpoint Dewpoint Depression Visibility Wind Speed Wind Dir Waves Ship Positions

Kakushu Maru

Last reported at 2014-Dec-04 05:33 UTC. Time now 2014-Dec-22 07:04 UTC.
Position N 35°16' E 139°46'.
Warning: this ship's position is 18 days out of date.

Length 105 m; draft 4.7 m.

Type: Tanker. MMSI: 431101016.

Date/timePositionNaut miles runAvg speedWind from/ knotsBaromVisibWave heightAir tempDewpointWater temp
2014-Dec-04 05:33N 35°16' E 139°46'1111.0
2014-Dec-04 04:33N 35°27' E 139°46'4 3.8
2014-Dec-04 03:33N 35°31' E 139°46'0 0.0
2014-Dec-04 02:33N 35°31' E 139°46'0 0.0
2014-Dec-04 01:33N 35°31' E 139°46'0 0.0
2014-Dec-04 00:33N 35°31' E 139°46'1 0.5
2014-Dec-03 22:33N 35°30' E 139°45'7 6.7
2014-Dec-03 21:33N 35°24' E 139°46'9 8.9
2014-Dec-03 20:33N 35°15' E 139°47'  

Dump ship's entire track history